createdAt,value
2023-01-09T00:02:20.324Z,11.40
2023-01-09T00:04:49.715Z,8.73
2023-01-09T00:07:17.903Z,10.10
2023-01-09T00:09:47.286Z,8.55
2023-01-09T00:12:15.147Z,10.57
2023-01-09T00:14:43.121Z,9.48
2023-01-09T00:17:11.457Z,10.50
2023-01-09T00:19:39.386Z,8.80
2023-01-09T00:22:09.584Z,10.82
2023-01-09T00:24:37.862Z,7.88
2023-01-09T00:27:05.991Z,9.07
2023-01-09T00:29:34.131Z,7.90
2023-01-09T00:32:02.530Z,9.93
2023-01-09T00:34:30.494Z,8.93
2023-01-09T00:36:58.422Z,8.07
2023-01-09T00:39:28.108Z,8.32
2023-01-09T00:41:58.593Z,6.68
2023-01-09T00:44:33.730Z,8.63
2023-01-09T00:47:07.868Z,7.10
2023-01-09T00:49:38.629Z,9.00
2023-01-09T00:52:10.551Z,8.05
2023-01-09T00:54:40.690Z,8.02
2023-01-09T00:57:09.331Z,5.78
2023-01-09T00:59:37.393Z,8.65
2023-01-09T01:02:06.105Z,7.43
2023-01-09T01:04:51.992Z,6.57
2023-01-09T01:07:37.534Z,6.80
2023-01-09T01:10:10.567Z,8.75
2023-01-09T01:12:39.420Z,6.32
2023-01-09T01:15:08.749Z,5.97
2023-01-09T01:17:37.405Z,7.82
2023-01-09T01:20:07.581Z,8.15
2023-01-09T01:22:35.774Z,8.38
2023-01-09T01:25:03.713Z,5.70
2023-01-09T01:27:33.117Z,5.95
2023-01-09T01:30:01.027Z,7.47
2023-01-09T01:32:28.897Z,9.77
2023-01-09T01:34:57.241Z,6.97
2023-01-09T01:37:25.399Z,7.28
2023-01-09T01:39:53.554Z,7.20
2023-01-09T01:42:21.664Z,10.45
2023-01-09T01:45:13.921Z,7.90
2023-01-09T01:47:54.233Z,5.95
2023-01-09T01:50:31.192Z,8.50
2023-01-09T01:53:08.715Z,8.55
2023-01-09T01:55:40.026Z,4.78
2023-01-09T01:58:11.276Z,6.20
2023-01-09T02:00:44.882Z,7.22
2023-01-09T02:03:17.058Z,5.90
2023-01-09T02:05:45.586Z,7.40
2023-01-09T02:08:14.226Z,6.78
2023-01-09T02:10:43.004Z,5.03
2023-01-09T02:13:12.209Z,6.85
2023-01-09T02:15:51.801Z,7.57
2023-01-09T02:18:31.910Z,5.78
2023-01-09T02:21:04.570Z,8.75
2023-01-09T02:24:18.550Z,7.43
2023-01-09T02:27:03.442Z,5.82
2023-01-09T02:29:55.436Z,6.18
2023-01-09T02:32:38.263Z,9.95
2023-01-09T02:35:18.149Z,6.80
2023-01-09T02:37:55.701Z,3.70
2023-01-09T02:40:29.488Z,3.95
2023-01-09T02:43:00.437Z,3.88
2023-01-09T02:45:28.457Z,3.90
2023-01-09T02:47:57.992Z,5.10
2023-01-09T02:50:35.082Z,4.78
2023-01-09T02:53:34.318Z,3.72
2023-01-09T02:56:33.688Z,4.65
2023-01-09T02:59:32.993Z,2.78
2023-01-09T03:02:17.362Z,3.38
2023-01-09T03:04:59.678Z,3.88
2023-01-09T03:07:34.595Z,3.22
2023-01-09T03:10:10.838Z,4.13
2023-01-09T03:12:42.533Z,3.38
2023-01-09T03:15:15.627Z,3.13
2023-01-09T03:17:47.832Z,1.45
2023-01-09T03:20:21.366Z,2.03
2023-01-09T03:22:56.177Z,4.05
2023-01-09T03:25:25.133Z,3.05
2023-01-09T03:27:59.102Z,3.78
2023-01-09T03:30:28.697Z,2.25
2023-01-09T03:32:56.828Z,3.65
2023-01-09T03:35:27.421Z,3.53
2023-01-09T03:37:55.354Z,4.57
2023-01-09T03:40:23.289Z,4.18
2023-01-09T03:42:51.653Z,4.32
2023-01-09T03:45:19.630Z,3.50
2023-01-09T03:47:47.771Z,3.28
2023-01-09T03:50:16.072Z,3.03
2023-01-09T03:52:45.436Z,3.70
2023-01-09T03:55:15.530Z,3.85
2023-01-09T03:57:44.200Z,4.85
2023-01-09T04:00:13.363Z,4.10
2023-01-09T04:02:41.299Z,4.25
2023-01-09T04:05:10.251Z,5.00
2023-01-09T04:07:38.219Z,5.60
2023-01-09T04:10:08.249Z,5.40
2023-01-09T04:12:36.386Z,10.15
2023-01-09T04:15:04.706Z,4.22
2023-01-09T04:17:32.892Z,4.88
2023-01-09T04:20:01.149Z,4.22
2023-01-09T04:22:29.349Z,5.03
2023-01-09T04:24:57.396Z,3.47
2023-01-09T04:27:27.091Z,3.53
2023-01-09T04:29:54.999Z,3.63
2023-01-09T04:32:23.031Z,2.78
2023-01-09T04:34:51.326Z,3.03
2023-01-09T04:37:19.227Z,3.65
2023-01-09T04:39:47.122Z,2.00
2023-01-09T04:42:15.576Z,3.10
2023-01-09T04:44:44.867Z,3.95
2023-01-09T04:47:13.815Z,2.40
2023-01-09T04:49:42.067Z,1.88
2023-01-09T04:52:10.388Z,3.33
2023-01-09T04:54:39.583Z,2.50
2023-01-09T04:57:08.321Z,3.78
2023-01-09T04:59:36.333Z,3.17
2023-01-09T05:02:05.860Z,1.70
2023-01-09T05:04:34.753Z,5.05
2023-01-09T05:07:02.923Z,3.10
2023-01-09T05:09:31.177Z,3.55
2023-01-09T05:12:01.716Z,4.95
2023-01-09T05:14:30.002Z,2.83
2023-01-09T05:16:58.134Z,3.17
2023-01-09T05:19:28.083Z,2.92
2023-01-09T05:21:56.040Z,3.03
2023-01-09T05:24:23.889Z,2.30
2023-01-09T05:26:51.825Z,8.45
2023-01-09T05:29:19.996Z,6.03
2023-01-09T05:31:47.958Z,4.68
2023-01-09T05:34:16.486Z,5.63
2023-01-09T05:36:45.981Z,5.55
2023-01-09T05:39:14.022Z,5.15
2023-01-09T05:41:42.589Z,5.45
2023-01-09T05:44:10.468Z,5.90
2023-01-09T05:46:38.791Z,6.53
2023-01-09T05:49:06.723Z,6.15
2023-01-09T05:51:35.185Z,6.28
2023-01-09T05:54:07.979Z,3.83
2023-01-09T05:56:35.920Z,4.05
2023-01-09T05:59:04.189Z,5.88
2023-01-09T06:01:32.686Z,4.18
2023-01-09T06:04:00.956Z,5.32
2023-01-09T06:06:28.823Z,3.63
2023-01-09T06:08:57.071Z,3.90
2023-01-09T06:11:26.661Z,3.67
2023-01-09T06:13:54.684Z,5.65
2023-01-09T06:16:23.015Z,6.38
2023-01-09T06:18:51.593Z,5.60
2023-01-09T06:21:19.700Z,4.70
2023-01-09T06:23:48.171Z,5.97
2023-01-09T06:26:16.479Z,4.93
2023-01-09T06:28:46.053Z,5.65
2023-01-09T06:31:14.919Z,5.20
2023-01-09T06:33:42.970Z,5.60
2023-01-09T06:36:11.226Z,5.47
2023-01-09T06:38:39.600Z,6.18
2023-01-09T06:41:08.286Z,7.45
2023-01-09T06:43:37.097Z,5.75
2023-01-09T06:46:07.056Z,4.32
2023-01-09T06:48:35.525Z,5.65
2023-01-09T06:51:03.831Z,6.80
2023-01-09T06:53:32.431Z,5.22
2023-01-09T06:56:02.351Z,5.38
2023-01-09T06:58:30.623Z,5.65
2023-01-09T07:00:59.970Z,4.85
2023-01-09T07:03:29.683Z,6.03
2023-01-09T07:05:57.868Z,3.90
2023-01-09T07:08:26.267Z,5.60
2023-01-09T07:10:54.242Z,5.15
2023-01-09T07:13:22.331Z,4.88
2023-01-09T07:15:50.937Z,5.63
2023-01-09T07:18:19.090Z,4.07
2023-01-09T07:20:48.611Z,3.72
2023-01-09T07:23:19.117Z,4.82
2023-01-09T07:25:48.184Z,5.43
2023-01-09T07:28:16.203Z,5.60
2023-01-09T07:30:44.748Z,4.10
2023-01-09T07:33:13.084Z,5.05
2023-01-09T07:35:41.335Z,6.43
2023-01-09T07:38:11.143Z,4.47
2023-01-09T07:40:39.441Z,3.38
2023-01-09T07:43:07.372Z,6.35
2023-01-09T07:45:35.734Z,8.77
2023-01-09T07:48:03.624Z,8.23
2023-01-09T07:50:31.816Z,9.50
2023-01-09T07:53:00.743Z,8.63
2023-01-09T07:55:30.294Z,6.35
2023-01-09T07:57:58.266Z,5.90
2023-01-09T08:00:27.039Z,5.30
2023-01-09T08:02:55.347Z,6.80
2023-01-09T08:05:23.478Z,4.80
2023-01-09T08:07:51.916Z,7.85
2023-01-09T08:10:23.230Z,9.60
2023-01-09T08:12:53.457Z,9.82
2023-01-09T08:15:21.369Z,9.88
2023-01-09T08:17:49.561Z,6.68
2023-01-09T08:20:19.104Z,7.45
2023-01-09T08:22:50.692Z,8.32
2023-01-09T08:25:20.181Z,6.22
2023-01-09T08:27:48.461Z,8.00
2023-01-09T08:30:19.032Z,7.60
2023-01-09T08:32:50.883Z,7.90
2023-01-09T08:35:19.295Z,8.75
2023-01-09T08:37:47.913Z,7.20
2023-01-09T08:40:17.674Z,7.47
2023-01-09T08:43:03.738Z,6.68
2023-01-09T08:45:51.733Z,7.00
2023-01-09T08:48:22.232Z,7.85
2023-01-09T08:50:50.800Z,7.95
2023-01-09T08:53:19.217Z,8.73
2023-01-09T08:55:47.466Z,7.97
2023-01-09T08:58:15.760Z,6.13
2023-01-09T09:00:45.607Z,9.00
2023-01-09T09:03:13.624Z,9.15
2023-01-09T09:05:41.810Z,8.32
2023-01-09T09:08:10.194Z,8.43
2023-01-09T09:10:38.128Z,7.00
2023-01-09T09:13:06.086Z,11.15
2023-01-09T09:15:34.566Z,8.25
2023-01-09T09:18:06.479Z,5.95
2023-01-09T09:20:36.024Z,6.80
2023-01-09T09:23:04.750Z,6.45
2023-01-09T09:25:33.930Z,3.85
2023-01-09T09:28:02.087Z,5.10
2023-01-09T09:30:30.067Z,7.30
2023-01-09T09:32:57.981Z,9.23
2023-01-09T09:35:28.587Z,8.02
2023-01-09T09:37:58.836Z,4.82
2023-01-09T09:40:45.590Z,7.07
2023-01-09T09:43:49.015Z,7.95
2023-01-09T09:46:30.301Z,5.70
2023-01-09T09:49:05.948Z,4.30
2023-01-09T09:51:58.304Z,7.22
2023-01-09T09:54:33.588Z,6.85
2023-01-09T09:57:04.924Z,7.03
2023-01-09T09:59:37.340Z,7.13
2023-01-09T10:02:17.256Z,6.80
2023-01-09T10:04:56.779Z,6.57
2023-01-09T10:07:31.258Z,6.10
2023-01-09T10:10:05.608Z,9.77
2023-01-09T10:12:38.510Z,7.63
2023-01-09T10:15:17.633Z,5.50
2023-01-09T10:17:55.469Z,6.72
2023-01-09T10:20:56.429Z,4.18
2023-01-09T10:23:52.748Z,4.65
2023-01-09T10:26:27.724Z,5.60
2023-01-09T10:29:22.422Z,5.00
2023-01-09T10:32:02.077Z,5.38
2023-01-09T10:34:46.781Z,7.43
2023-01-09T10:37:19.878Z,5.82
2023-01-09T10:39:54.480Z,4.18
2023-01-09T10:42:30.761Z,6.22
2023-01-09T10:45:07.665Z,6.47
2023-01-09T10:47:38.375Z,6.55
2023-01-09T10:50:20.902Z,7.10
2023-01-09T10:52:51.404Z,4.45
2023-01-09T10:55:28.472Z,4.22
2023-01-09T10:58:00.931Z,5.97
2023-01-09T11:00:29.168Z,4.45
2023-01-09T11:02:57.594Z,5.15
2023-01-09T11:05:29.177Z,4.35
2023-01-09T11:08:02.662Z,6.63
2023-01-09T11:13:27.420Z,5.72
2023-01-09T11:16:05.540Z,7.00
2023-01-09T11:18:35.171Z,5.13
2023-01-09T11:21:26.997Z,5.88
2023-01-09T11:23:55.061Z,3.13
2023-01-09T11:26:25.175Z,5.10
2023-01-09T11:29:13.792Z,7.20
2023-01-09T11:31:43.029Z,6.65
2023-01-09T11:34:18.020Z,5.10
2023-01-09T11:36:46.936Z,7.00
2023-01-09T11:39:24.953Z,7.32
2023-01-09T11:41:56.061Z,6.68
2023-01-09T11:44:26.880Z,6.22
2023-01-09T11:46:55.022Z,5.38
2023-01-09T11:49:24.641Z,9.48
2023-01-09T11:52:17.300Z,7.07
2023-01-09T11:54:51.205Z,5.60
2023-01-09T11:57:19.974Z,7.97
2023-01-09T11:59:50.323Z,6.47
2023-01-09T12:02:53.729Z,6.60
2023-01-09T12:05:34.645Z,4.82
2023-01-09T12:08:15.029Z,10.35
2023-01-09T12:11:18.764Z,4.57
2023-01-09T12:14:05.663Z,6.65
2023-01-09T12:16:39.708Z,7.50
2023-01-09T12:19:23.121Z,5.85
2023-01-09T12:21:58.903Z,7.78
2023-01-09T12:24:49.963Z,4.30
2023-01-09T12:27:30.700Z,6.50
2023-01-09T12:30:17.268Z,3.55
2023-01-09T12:32:59.867Z,6.88
2023-01-09T12:35:37.868Z,7.00
2023-01-09T12:38:36.664Z,7.55
2023-01-09T12:41:35.616Z,5.93
2023-01-09T12:44:35.444Z,5.72
2023-01-09T12:47:17.783Z,4.90
2023-01-09T12:49:55.159Z,6.65
2023-01-09T12:52:27.825Z,4.43
2023-01-09T12:55:02.592Z,7.07
2023-01-09T12:57:37.504Z,6.30
2023-01-09T13:00:15.205Z,9.05
2023-01-09T13:02:47.701Z,9.25
2023-01-09T13:05:20.971Z,7.43
2023-01-09T13:07:55.713Z,6.70
2023-01-09T13:10:28.020Z,5.47
2023-01-09T13:12:59.608Z,8.27
2023-01-09T13:15:33.108Z,5.38
2023-01-09T13:18:07.361Z,6.03
2023-01-09T13:20:43.244Z,5.75
2023-01-09T13:23:19.028Z,7.65
2023-01-09T13:25:48.392Z,3.97
2023-01-09T13:28:23.017Z,6.03
2023-01-09T13:31:13.299Z,7.60
2023-01-09T13:33:45.512Z,6.22
2023-01-09T13:36:25.489Z,6.22
2023-01-09T13:38:55.770Z,6.05
2023-01-09T13:41:45.460Z,7.95
2023-01-09T13:44:29.087Z,8.25
2023-01-09T13:46:59.629Z,5.85
2023-01-09T13:49:33.383Z,8.20
2023-01-09T13:52:05.719Z,9.48
2023-01-09T13:55:02.951Z,7.03
2023-01-09T13:57:34.783Z,6.88
2023-01-09T14:00:45.024Z,6.00
2023-01-09T14:03:20.657Z,10.00
2023-01-09T14:06:21.577Z,9.55
2023-01-09T14:09:12.907Z,10.18
2023-01-09T14:11:42.113Z,10.20
2023-01-09T14:14:23.906Z,10.93
2023-01-09T14:16:52.645Z,9.55
2023-01-09T14:19:33.125Z,13.45
2023-01-09T14:22:02.438Z,9.80
2023-01-09T14:24:35.099Z,11.40
2023-01-09T14:27:03.502Z,11.90
2023-01-09T14:29:43.603Z,10.35
2023-01-09T14:32:39.189Z,9.10
2023-01-09T14:35:16.046Z,9.30
2023-01-09T14:37:46.286Z,9.35
2023-01-09T14:40:24.313Z,11.18
2023-01-09T14:42:55.474Z,11.85
2023-01-09T14:45:26.300Z,11.15
2023-01-09T14:47:58.058Z,11.82
2023-01-09T14:50:34.129Z,10.73
2023-01-09T14:53:07.377Z,8.27
2023-01-09T14:55:51.342Z,9.45
2023-01-09T14:58:27.907Z,9.05
2023-01-09T15:01:02.347Z,12.70
2023-01-09T15:03:37.817Z,13.57
2023-01-09T15:06:07.133Z,10.52
2023-01-09T15:08:35.513Z,10.30
2023-01-09T15:11:05.443Z,10.82
2023-01-09T15:13:36.366Z,8.90
2023-01-09T15:16:07.296Z,9.93
2023-01-09T15:18:43.236Z,7.65
2023-01-09T15:21:25.275Z,6.25
2023-01-09T15:23:53.842Z,7.28
2023-01-09T15:26:29.643Z,5.95
2023-01-09T15:29:03.050Z,6.88
2023-01-09T15:31:31.958Z,7.90
2023-01-09T15:34:00.488Z,8.95
2023-01-09T15:36:31.168Z,8.02
2023-01-09T15:39:00.784Z,19.05
2023-01-09T15:41:49.230Z,17.08
2023-01-09T15:44:22.144Z,8.27
2023-01-09T15:46:51.891Z,9.25
2023-01-09T15:49:20.609Z,11.80
2023-01-09T15:51:50.599Z,6.28
2023-01-09T15:54:22.341Z,4.80
2023-01-09T15:56:52.150Z,7.88
2023-01-09T15:59:30.466Z,10.55
2023-01-09T16:02:15.636Z,13.35
2023-01-09T16:04:43.834Z,13.23
2023-01-09T16:07:16.949Z,9.15
2023-01-09T16:09:50.126Z,10.88
2023-01-09T16:12:23.375Z,6.93
2023-01-09T16:14:54.334Z,9.15
2023-01-09T16:17:26.993Z,10.73
2023-01-09T16:19:58.152Z,9.35
2023-01-09T16:22:29.183Z,9.82
2023-01-09T16:24:58.709Z,8.05
2023-01-09T16:27:31.797Z,9.55
2023-01-09T16:30:01.305Z,10.55
2023-01-09T16:32:31.697Z,6.82
2023-01-09T16:35:04.654Z,10.98
2023-01-09T16:37:34.557Z,9.23
2023-01-09T16:40:25.260Z,10.80
2023-01-09T16:43:03.989Z,9.98
2023-01-09T16:45:37.542Z,11.40
2023-01-09T16:48:16.359Z,6.32
2023-01-09T16:50:45.558Z,10.30
2023-01-09T16:53:17.831Z,9.80
2023-01-09T16:55:46.479Z,9.70
2023-01-09T16:58:19.712Z,7.70
2023-01-09T17:00:48.029Z,12.70
2023-01-09T17:03:17.707Z,12.02
2023-01-09T17:05:46.613Z,12.45
2023-01-09T17:08:22.331Z,8.82
2023-01-09T17:10:50.693Z,10.40
2023-01-09T17:13:20.833Z,11.48
2023-01-09T17:15:49.531Z,13.77
2023-01-09T17:18:20.104Z,11.35
2023-01-09T17:20:53.171Z,11.15
2023-01-09T17:23:22.568Z,10.50
2023-01-09T17:26:10.028Z,11.10
2023-01-09T17:28:43.472Z,11.57
2023-01-09T17:31:13.136Z,11.73
2023-01-09T17:33:43.143Z,13.10
2023-01-09T17:36:23.281Z,8.00
2023-01-09T17:38:55.369Z,10.90
2023-01-09T17:41:24.341Z,8.90
2023-01-09T17:43:54.110Z,12.38
2023-01-09T17:46:29.090Z,10.82
2023-01-09T17:48:57.422Z,12.98
2023-01-09T17:51:25.868Z,9.02
2023-01-09T17:53:54.100Z,10.48
2023-01-09T17:56:24.544Z,10.27
2023-01-09T17:58:54.468Z,12.00
2023-01-09T18:01:23.089Z,10.75
2023-01-09T18:03:51.118Z,10.02
2023-01-09T18:06:21.060Z,10.27
2023-01-09T18:08:49.472Z,10.48
2023-01-09T18:11:19.954Z,10.02
2023-01-09T18:13:50.142Z,10.90
2023-01-09T18:16:23.937Z,8.30
2023-01-09T18:18:52.508Z,12.70
2023-01-09T18:21:23.552Z,8.93
2023-01-09T18:23:52.156Z,10.32
2023-01-09T18:26:22.121Z,10.23
2023-01-09T18:28:52.120Z,7.38
2023-01-09T18:31:24.396Z,8.95
2023-01-09T18:33:54.133Z,8.32
2023-01-09T18:36:25.119Z,7.95
2023-01-09T18:38:53.754Z,8.23
2023-01-09T18:41:25.495Z,10.18
2023-01-09T18:43:54.857Z,10.23
2023-01-09T18:46:25.363Z,9.25
2023-01-09T18:48:54.291Z,11.02
2023-01-09T18:51:23.045Z,8.57
2023-01-09T18:53:52.200Z,10.43
2023-01-09T18:56:20.638Z,8.50
2023-01-09T18:58:49.289Z,9.60
2023-01-09T19:01:18.330Z,10.00
2023-01-09T19:03:47.840Z,9.32
2023-01-09T19:06:16.193Z,9.70
2023-01-09T19:08:44.321Z,12.18
2023-01-09T19:11:12.788Z,10.07
2023-01-09T19:13:40.895Z,12.52
2023-01-09T19:16:10.169Z,11.45
2023-01-09T19:18:40.338Z,11.65
2023-01-09T19:21:15.615Z,13.50
2023-01-09T19:23:44.852Z,13.85
2023-01-09T19:26:22.640Z,10.13
2023-01-09T19:28:51.953Z,11.27
2023-01-09T19:31:20.161Z,10.10
2023-01-09T19:33:48.480Z,12.63
2023-01-09T19:36:20.232Z,9.60
2023-01-09T19:38:48.584Z,10.10
2023-01-09T19:41:23.318Z,10.13
2023-01-09T19:43:52.675Z,7.43
2023-01-09T19:46:25.568Z,9.80
2023-01-09T19:48:58.749Z,9.25
2023-01-09T19:51:32.086Z,9.25
2023-01-09T19:56:30.371Z,8.80
2023-01-09T19:59:00.261Z,8.63
2023-01-09T20:01:33.738Z,10.48
2023-01-09T20:04:05.080Z,14.50
2023-01-09T20:06:37.474Z,9.85
2023-01-09T20:09:07.685Z,11.23
2023-01-09T20:11:36.260Z,9.20
2023-01-09T20:14:04.664Z,6.15
2023-01-09T20:16:33.047Z,5.43
2023-01-09T20:19:07.458Z,8.05
2023-01-09T20:21:37.499Z,7.95
2023-01-09T20:24:07.625Z,7.80
2023-01-09T20:26:37.691Z,4.88
2023-01-09T20:29:05.644Z,5.07
2023-01-09T20:31:34.674Z,5.75
2023-01-09T20:34:03.207Z,8.30
2023-01-09T20:36:32.369Z,5.85
2023-01-09T20:39:03.322Z,7.22
2023-01-09T20:41:31.751Z,9.82
2023-01-09T20:44:02.297Z,9.88
2023-01-09T20:46:34.870Z,8.43
2023-01-09T20:49:03.605Z,8.93
2023-01-09T20:51:32.105Z,7.82
2023-01-09T20:54:02.081Z,7.65
2023-01-09T20:56:31.746Z,8.52
2023-01-09T20:59:00.410Z,7.95
2023-01-09T21:01:30.488Z,8.93
2023-01-09T21:03:59.044Z,8.77
2023-01-09T21:06:28.787Z,8.48
2023-01-09T21:08:57.241Z,6.28
2023-01-09T21:11:26.528Z,7.60
2023-01-09T21:13:54.528Z,9.43
2023-01-09T21:16:25.099Z,8.45
2023-01-09T21:18:55.258Z,6.00
2023-01-09T21:21:26.728Z,7.10
2023-01-09T21:23:56.731Z,6.18
2023-01-09T21:26:30.967Z,8.43
2023-01-09T21:29:02.005Z,6.63
2023-01-09T21:31:35.045Z,10.35
2023-01-09T21:34:04.802Z,8.10
2023-01-09T21:36:33.302Z,9.48
2023-01-09T21:39:01.851Z,9.00
2023-01-09T21:41:49.101Z,5.65
2023-01-09T21:44:34.755Z,8.05
2023-01-09T21:47:04.125Z,9.32
2023-01-09T21:49:35.393Z,9.27
2023-01-09T21:52:04.957Z,7.68
2023-01-09T21:54:34.015Z,9.38
2023-01-09T21:57:04.491Z,8.63
2023-01-09T21:59:32.556Z,7.22
2023-01-09T22:02:00.661Z,9.30
2023-01-09T22:04:31.658Z,7.97
2023-01-09T22:07:02.390Z,8.50
2023-01-09T22:09:30.640Z,8.70
2023-01-09T22:11:59.000Z,7.30
2023-01-09T22:14:28.456Z,7.43
2023-01-09T22:16:56.411Z,9.57
2023-01-09T22:19:26.172Z,6.47
2023-01-09T22:21:55.697Z,9.20
2023-01-09T22:24:23.762Z,6.20
2023-01-09T22:26:51.920Z,5.80
2023-01-09T22:29:20.063Z,8.52
2023-01-09T22:31:49.751Z,8.15
2023-01-09T22:34:19.253Z,7.57
2023-01-09T22:36:47.971Z,6.45
2023-01-09T22:39:18.783Z,8.60
2023-01-09T22:41:51.371Z,8.50
2023-01-09T22:44:19.730Z,9.00
2023-01-09T22:46:49.145Z,6.53
2023-01-09T22:49:17.089Z,6.95
2023-01-09T22:51:45.682Z,7.20
2023-01-09T22:54:13.965Z,6.00
2023-01-09T22:56:41.887Z,4.63
2023-01-09T22:59:10.659Z,6.75
2023-01-09T23:01:38.875Z,5.65
2023-01-09T23:04:08.892Z,5.55
2023-01-09T23:06:37.144Z,6.22
2023-01-09T23:09:05.157Z,7.07
2023-01-09T23:11:50.435Z,6.72
2023-01-09T23:14:18.760Z,6.57
2023-01-09T23:16:46.796Z,5.43
2023-01-09T23:19:16.608Z,5.82
2023-01-09T23:21:46.232Z,5.80
2023-01-09T23:24:15.510Z,6.20
2023-01-09T23:26:43.933Z,6.20
2023-01-09T23:29:12.781Z,8.07
2023-01-09T23:31:41.375Z,5.28
2023-01-09T23:34:09.561Z,4.70
2023-01-09T23:36:38.893Z,6.18
2023-01-09T23:39:10.143Z,4.47
2023-01-09T23:41:54.802Z,7.35
2023-01-09T23:44:22.816Z,5.40
2023-01-09T23:46:50.820Z,4.07
2023-01-09T23:49:18.874Z,5.32
2023-01-09T23:51:48.600Z,3.67
2023-01-09T23:54:17.398Z,7.32
2023-01-09T23:56:45.540Z,4.97
2023-01-09T23:59:15.665Z,5.28
